sensor_id;sensor_type;location;lat;lon;timestamp;P1;durP1;ratioP1;P2;durP2;ratioP2
63965;SDS011;50151;52.030;5.350;2023-05-07T00:01:44;7.93;;;5.85;;
63965;SDS011;50151;52.030;5.350;2023-05-07T00:04:11;10.32;;;5.82;;
63965;SDS011;50151;52.030;5.350;2023-05-07T00:06:38;8.23;;;5.68;;
63965;SDS011;50151;52.030;5.350;2023-05-07T00:09:05;6.72;;;5.53;;
63965;SDS011;50151;52.030;5.350;2023-05-07T00:11:33;8.00;;;5.50;;
63965;SDS011;50151;52.030;5.350;2023-05-07T00:14:02;8.35;;;5.47;;
63965;SDS011;50151;52.030;5.350;2023-05-07T00:16:28;9.45;;;5.47;;
63965;SDS011;50151;52.030;5.350;2023-05-07T00:18:55;8.38;;;5.88;;
63965;SDS011;50151;52.030;5.350;2023-05-07T00:21:22;6.28;;;5.13;;
63965;SDS011;50151;52.030;5.350;2023-05-07T00:23:48;9.35;;;5.32;;
63965;SDS011;50151;52.030;5.350;2023-05-07T00:26:15;9.90;;;5.75;;
63965;SDS011;50151;52.030;5.350;2023-05-07T00:28:42;8.80;;;5.43;;
63965;SDS011;50151;52.030;5.350;2023-05-07T00:31:09;6.88;;;5.00;;
63965;SDS011;50151;52.030;5.350;2023-05-07T00:33:36;7.70;;;5.30;;
63965;SDS011;50151;52.030;5.350;2023-05-07T00:36:02;6.72;;;5.35;;
63965;SDS011;50151;52.030;5.350;2023-05-07T00:38:29;6.18;;;5.30;;
63965;SDS011;50151;52.030;5.350;2023-05-07T00:40:56;7.05;;;5.18;;
63965;SDS011;50151;52.030;5.350;2023-05-07T00:43:23;7.97;;;5.10;;
63965;SDS011;50151;52.030;5.350;2023-05-07T00:45:49;6.70;;;4.82;;
63965;SDS011;50151;52.030;5.350;2023-05-07T00:48:16;8.20;;;5.00;;
63965;SDS011;50151;52.030;5.350;2023-05-07T00:50:44;8.23;;;5.25;;
63965;SDS011;50151;52.030;5.350;2023-05-07T00:53:11;7.70;;;5.32;;
63965;SDS011;50151;52.030;5.350;2023-05-07T00:55:38;9.10;;;4.78;;
63965;SDS011;50151;52.030;5.350;2023-05-07T00:58:05;8.52;;;5.10;;
63965;SDS011;50151;52.030;5.350;2023-05-07T01:00:32;8.10;;;5.45;;
63965;SDS011;50151;52.030;5.350;2023-05-07T01:02:59;9.23;;;5.00;;
63965;SDS011;50151;52.030;5.350;2023-05-07T01:05:27;9.95;;;5.10;;
63965;SDS011;50151;52.030;5.350;2023-05-07T01:07:55;9.07;;;4.78;;
63965;SDS011;50151;52.030;5.350;2023-05-07T01:10:23;6.53;;;4.88;;
63965;SDS011;50151;52.030;5.350;2023-05-07T01:12:50;8.77;;;5.20;;
63965;SDS011;50151;52.030;5.350;2023-05-07T01:15:18;6.80;;;4.63;;
63965;SDS011;50151;52.030;5.350;2023-05-07T01:17:45;7.90;;;4.85;;
63965;SDS011;50151;52.030;5.350;2023-05-07T01:20:12;7.10;;;5.00;;
63965;SDS011;50151;52.030;5.350;2023-05-07T01:22:40;7.78;;;4.85;;
63965;SDS011;50151;52.030;5.350;2023-05-07T01:25:07;7.82;;;5.13;;
63965;SDS011;50151;52.030;5.350;2023-05-07T01:27:34;8.40;;;4.70;;
63965;SDS011;50151;52.030;5.350;2023-05-07T01:30:05;10.25;;;4.75;;
63965;SDS011;50151;52.030;5.350;2023-05-07T01:32:38;7.20;;;5.10;;
63965;SDS011;50151;52.030;5.350;2023-05-07T01:35:26;7.20;;;5.30;;
63965;SDS011;50151;52.030;5.350;2023-05-07T01:37:55;6.85;;;5.03;;
63965;SDS011;50151;52.030;5.350;2023-05-07T01:40:23;6.35;;;4.90;;
63965;SDS011;50151;52.030;5.350;2023-05-07T01:42:50;6.82;;;4.97;;
63965;SDS011;50151;52.030;5.350;2023-05-07T01:45:18;6.88;;;5.25;;
63965;SDS011;50151;52.030;5.350;2023-05-07T01:47:45;9.45;;;5.25;;
63965;SDS011;50151;52.030;5.350;2023-05-07T01:50:12;8.45;;;5.40;;
63965;SDS011;50151;52.030;5.350;2023-05-07T01:52:43;9.68;;;5.10;;
63965;SDS011;50151;52.030;5.350;2023-05-07T01:55:09;7.60;;;5.13;;
63965;SDS011;50151;52.030;5.350;2023-05-07T01:57:37;7.72;;;4.95;;
63965;SDS011;50151;52.030;5.350;2023-05-07T02:00:03;10.43;;;4.72;;
63965;SDS011;50151;52.030;5.350;2023-05-07T02:02:31;8.27;;;4.82;;
63965;SDS011;50151;52.030;5.350;2023-05-07T02:04:58;6.68;;;4.45;;
63965;SDS011;50151;52.030;5.350;2023-05-07T02:07:26;7.25;;;4.68;;
63965;SDS011;50151;52.030;5.350;2023-05-07T02:09:53;8.80;;;5.22;;
63965;SDS011;50151;52.030;5.350;2023-05-07T02:12:21;9.10;;;5.15;;
63965;SDS011;50151;52.030;5.350;2023-05-07T02:14:49;6.43;;;4.60;;
63965;SDS011;50151;52.030;5.350;2023-05-07T02:17:15;7.85;;;5.25;;
63965;SDS011;50151;52.030;5.350;2023-05-07T02:19:42;10.10;;;5.28;;
63965;SDS011;50151;52.030;5.350;2023-05-07T02:22:09;7.80;;;5.07;;
63965;SDS011;50151;52.030;5.350;2023-05-07T02:24:36;7.07;;;5.03;;
63965;SDS011;50151;52.030;5.350;2023-05-07T02:27:03;9.82;;;5.35;;
63965;SDS011;50151;52.030;5.350;2023-05-07T02:29:29;10.25;;;5.50;;
63965;SDS011;50151;52.030;5.350;2023-05-07T02:31:56;7.63;;;5.15;;
63965;SDS011;50151;52.030;5.350;2023-05-07T02:34:23;8.43;;;5.28;;
63965;SDS011;50151;52.030;5.350;2023-05-07T02:36:50;6.40;;;5.07;;
63965;SDS011;50151;52.030;5.350;2023-05-07T02:39:16;6.70;;;5.60;;
63965;SDS011;50151;52.030;5.350;2023-05-07T02:41:43;7.13;;;5.15;;
63965;SDS011;50151;52.030;5.350;2023-05-07T02:44:09;9.90;;;6.13;;
63965;SDS011;50151;52.030;5.350;2023-05-07T02:46:36;7.72;;;6.28;;
63965;SDS011;50151;52.030;5.350;2023-05-07T02:49:03;9.05;;;6.55;;
63965;SDS011;50151;52.030;5.350;2023-05-07T02:51:30;10.90;;;6.68;;
63965;SDS011;50151;52.030;5.350;2023-05-07T02:53:57;9.00;;;6.53;;
63965;SDS011;50151;52.030;5.350;2023-05-07T02:56:25;10.52;;;6.60;;
63965;SDS011;50151;52.030;5.350;2023-05-07T02:58:52;8.10;;;6.22;;
63965;SDS011;50151;52.030;5.350;2023-05-07T03:01:19;10.02;;;6.40;;
63965;SDS011;50151;52.030;5.350;2023-05-07T03:03:46;12.18;;;6.32;;
63965;SDS011;50151;52.030;5.350;2023-05-07T03:06:13;8.52;;;6.68;;
63965;SDS011;50151;52.030;5.350;2023-05-07T03:08:40;9.10;;;6.20;;
63965;SDS011;50151;52.030;5.350;2023-05-07T03:11:06;12.07;;;7.25;;
63965;SDS011;50151;52.030;5.350;2023-05-07T03:13:33;9.43;;;6.88;;
63965;SDS011;50151;52.030;5.350;2023-05-07T03:16:00;9.25;;;6.65;;
63965;SDS011;50151;52.030;5.350;2023-05-07T03:18:26;9.27;;;6.50;;
63965;SDS011;50151;52.030;5.350;2023-05-07T03:20:53;9.18;;;6.45;;
63965;SDS011;50151;52.030;5.350;2023-05-07T03:23:20;13.07;;;7.18;;
63965;SDS011;50151;52.030;5.350;2023-05-07T03:25:49;7.80;;;6.00;;
63965;SDS011;50151;52.030;5.350;2023-05-07T03:28:16;9.63;;;6.22;;
63965;SDS011;50151;52.030;5.350;2023-05-07T03:30:43;9.50;;;6.60;;
63965;SDS011;50151;52.030;5.350;2023-05-07T03:33:09;11.55;;;7.30;;
63965;SDS011;50151;52.030;5.350;2023-05-07T03:35:36;10.95;;;6.53;;
63965;SDS011;50151;52.030;5.350;2023-05-07T03:38:03;14.10;;;7.25;;
63965;SDS011;50151;52.030;5.350;2023-05-07T03:40:29;8.00;;;6.28;;
63965;SDS011;50151;52.030;5.350;2023-05-07T03:42:56;11.40;;;6.80;;
63965;SDS011;50151;52.030;5.350;2023-05-07T03:45:23;8.80;;;5.63;;
63965;SDS011;50151;52.030;5.350;2023-05-07T03:47:49;12.95;;;6.35;;
63965;SDS011;50151;52.030;5.350;2023-05-07T03:50:16;8.93;;;6.00;;
63965;SDS011;50151;52.030;5.350;2023-05-07T03:52:43;7.40;;;5.90;;
63965;SDS011;50151;52.030;5.350;2023-05-07T03:55:10;9.05;;;5.80;;
63965;SDS011;50151;52.030;5.350;2023-05-07T03:57:37;9.30;;;5.95;;
63965;SDS011;50151;52.030;5.350;2023-05-07T04:00:03;7.30;;;6.03;;
63965;SDS011;50151;52.030;5.350;2023-05-07T04:02:32;10.68;;;6.20;;
63965;SDS011;50151;52.030;5.350;2023-05-07T04:04:59;10.95;;;7.03;;
63965;SDS011;50151;52.030;5.350;2023-05-07T04:07:26;9.90;;;7.15;;
63965;SDS011;50151;52.030;5.350;2023-05-07T04:09:53;9.52;;;7.57;;
63965;SDS011;50151;52.030;5.350;2023-05-07T04:12:19;14.57;;;7.97;;
63965;SDS011;50151;52.030;5.350;2023-05-07T04:14:46;11.25;;;7.30;;
63965;SDS011;50151;52.030;5.350;2023-05-07T04:17:12;11.20;;;8.00;;
63965;SDS011;50151;52.030;5.350;2023-05-07T04:19:39;10.65;;;8.07;;
63965;SDS011;50151;52.030;5.350;2023-05-07T04:22:11;13.35;;;8.00;;
63965;SDS011;50151;52.030;5.350;2023-05-07T04:24:38;12.05;;;8.40;;
63965;SDS011;50151;52.030;5.350;2023-05-07T04:27:04;10.82;;;8.30;;
63965;SDS011;50151;52.030;5.350;2023-05-07T04:29:32;17.15;;;8.13;;
63965;SDS011;50151;52.030;5.350;2023-05-07T04:31:59;10.70;;;8.57;;
63965;SDS011;50151;52.030;5.350;2023-05-07T04:34:25;12.10;;;8.63;;
63965;SDS011;50151;52.030;5.350;2023-05-07T04:36:52;13.65;;;8.90;;
63965;SDS011;50151;52.030;5.350;2023-05-07T04:39:19;12.23;;;9.30;;
63965;SDS011;50151;52.030;5.350;2023-05-07T04:41:46;15.55;;;8.80;;
63965;SDS011;50151;52.030;5.350;2023-05-07T04:44:12;15.65;;;9.77;;
63965;SDS011;50151;52.030;5.350;2023-05-07T04:46:39;11.95;;;8.75;;
63965;SDS011;50151;52.030;5.350;2023-05-07T04:49:06;10.55;;;8.43;;
63965;SDS011;50151;52.030;5.350;2023-05-07T04:51:32;11.80;;;8.73;;
63965;SDS011;50151;52.030;5.350;2023-05-07T04:53:59;14.13;;;10.02;;
63965;SDS011;50151;52.030;5.350;2023-05-07T04:56:27;13.02;;;9.07;;
63965;SDS011;50151;52.030;5.350;2023-05-07T04:58:55;11.48;;;9.00;;
63965;SDS011;50151;52.030;5.350;2023-05-07T05:01:22;11.18;;;8.65;;
63965;SDS011;50151;52.030;5.350;2023-05-07T05:03:48;12.52;;;9.68;;
63965;SDS011;50151;52.030;5.350;2023-05-07T05:06:15;14.10;;;9.60;;
63965;SDS011;50151;52.030;5.350;2023-05-07T05:08:41;15.13;;;8.77;;
63965;SDS011;50151;52.030;5.350;2023-05-07T05:11:08;11.35;;;9.43;;
63965;SDS011;50151;52.030;5.350;2023-05-07T05:13:35;13.05;;;9.48;;
63965;SDS011;50151;52.030;5.350;2023-05-07T05:16:02;15.80;;;9.15;;
63965;SDS011;50151;52.030;5.350;2023-05-07T05:18:29;13.88;;;9.70;;
63965;SDS011;50151;52.030;5.350;2023-05-07T05:20:56;13.20;;;9.88;;
63965;SDS011;50151;52.030;5.350;2023-05-07T05:23:22;15.02;;;9.38;;
63965;SDS011;50151;52.030;5.350;2023-05-07T05:25:49;15.38;;;9.93;;
63965;SDS011;50151;52.030;5.350;2023-05-07T05:28:16;13.82;;;9.90;;
63965;SDS011;50151;52.030;5.350;2023-05-07T05:30:42;14.38;;;9.88;;
63965;SDS011;50151;52.030;5.350;2023-05-07T05:33:09;14.00;;;9.70;;
63965;SDS011;50151;52.030;5.350;2023-05-07T05:35:36;11.95;;;9.68;;
63965;SDS011;50151;52.030;5.350;2023-05-07T05:38:02;11.13;;;9.50;;
63965;SDS011;50151;52.030;5.350;2023-05-07T05:40:29;13.57;;;9.63;;
63965;SDS011;50151;52.030;5.350;2023-05-07T05:42:56;14.43;;;9.75;;
63965;SDS011;50151;52.030;5.350;2023-05-07T05:45:23;13.73;;;9.40;;
63965;SDS011;50151;52.030;5.350;2023-05-07T05:47:50;13.15;;;10.07;;
63965;SDS011;50151;52.030;5.350;2023-05-07T05:50:16;12.80;;;9.40;;
63965;SDS011;50151;52.030;5.350;2023-05-07T05:52:43;11.70;;;9.00;;
63965;SDS011;50151;52.030;5.350;2023-05-07T05:55:10;13.88;;;9.82;;
63965;SDS011;50151;52.030;5.350;2023-05-07T05:57:36;14.02;;;9.30;;
63965;SDS011;50151;52.030;5.350;2023-05-07T06:00:04;13.93;;;9.90;;
63965;SDS011;50151;52.030;5.350;2023-05-07T06:02:31;13.85;;;9.10;;
63965;SDS011;50151;52.030;5.350;2023-05-07T06:04:58;15.32;;;9.88;;
63965;SDS011;50151;52.030;5.350;2023-05-07T06:07:24;13.93;;;9.50;;
63965;SDS011;50151;52.030;5.350;2023-05-07T06:09:51;13.93;;;9.50;;
63965;SDS011;50151;52.030;5.350;2023-05-07T06:12:18;12.48;;;9.45;;
63965;SDS011;50151;52.030;5.350;2023-05-07T06:14:44;13.45;;;9.43;;
63965;SDS011;50151;52.030;5.350;2023-05-07T06:17:11;13.60;;;9.77;;
63965;SDS011;50151;52.030;5.350;2023-05-07T06:19:38;12.82;;;9.20;;
63965;SDS011;50151;52.030;5.350;2023-05-07T06:22:04;13.55;;;9.40;;
63965;SDS011;50151;52.030;5.350;2023-05-07T06:24:31;16.15;;;9.68;;
63965;SDS011;50151;52.030;5.350;2023-05-07T06:26:58;12.70;;;9.88;;
63965;SDS011;50151;52.030;5.350;2023-05-07T06:29:24;14.15;;;10.15;;
63965;SDS011;50151;52.030;5.350;2023-05-07T06:31:56;13.52;;;9.60;;
63965;SDS011;50151;52.030;5.350;2023-05-07T06:34:32;14.20;;;10.07;;
63965;SDS011;50151;52.030;5.350;2023-05-07T06:36:58;15.18;;;10.45;;
63965;SDS011;50151;52.030;5.350;2023-05-07T06:39:25;16.77;;;10.30;;
63965;SDS011;50151;52.030;5.350;2023-05-07T06:41:51;14.85;;;9.90;;
63965;SDS011;50151;52.030;5.350;2023-05-07T06:44:18;14.25;;;9.95;;
63965;SDS011;50151;52.030;5.350;2023-05-07T06:46:45;14.90;;;10.15;;
63965;SDS011;50151;52.030;5.350;2023-05-07T06:49:12;14.60;;;10.23;;
63965;SDS011;50151;52.030;5.350;2023-05-07T06:51:39;16.65;;;10.40;;
63965;SDS011;50151;52.030;5.350;2023-05-07T06:54:06;14.63;;;9.85;;
63965;SDS011;50151;52.030;5.350;2023-05-07T06:56:33;13.43;;;10.10;;
63965;SDS011;50151;52.030;5.350;2023-05-07T06:59:01;12.77;;;9.95;;
63965;SDS011;50151;52.030;5.350;2023-05-07T07:01:28;18.73;;;10.48;;
63965;SDS011;50151;52.030;5.350;2023-05-07T07:03:55;13.98;;;10.10;;
63965;SDS011;50151;52.030;5.350;2023-05-07T07:06:25;13.70;;;10.25;;
63965;SDS011;50151;52.030;5.350;2023-05-07T07:08:53;14.40;;;9.90;;
63965;SDS011;50151;52.030;5.350;2023-05-07T07:11:22;13.55;;;10.50;;
63965;SDS011;50151;52.030;5.350;2023-05-07T07:13:52;12.77;;;10.27;;
63965;SDS011;50151;52.030;5.350;2023-05-07T07:16:21;14.10;;;10.98;;
63965;SDS011;50151;52.030;5.350;2023-05-07T07:18:48;15.65;;;10.90;;
63965;SDS011;50151;52.030;5.350;2023-05-07T07:21:15;16.27;;;11.00;;
63965;SDS011;50151;52.030;5.350;2023-05-07T07:23:42;14.65;;;10.32;;
63965;SDS011;50151;52.030;5.350;2023-05-07T07:26:10;13.05;;;10.55;;
63965;SDS011;50151;52.030;5.350;2023-05-07T07:28:46;19.67;;;10.80;;
63965;SDS011;50151;52.030;5.350;2023-05-07T07:31:13;15.63;;;10.50;;
63965;SDS011;50151;52.030;5.350;2023-05-07T07:33:40;15.52;;;11.13;;
63965;SDS011;50151;52.030;5.350;2023-05-07T07:36:07;13.68;;;10.30;;
63965;SDS011;50151;52.030;5.350;2023-05-07T07:38:37;13.80;;;10.60;;
63965;SDS011;50151;52.030;5.350;2023-05-07T07:41:04;16.13;;;10.98;;
63965;SDS011;50151;52.030;5.350;2023-05-07T07:43:31;14.55;;;10.65;;
63965;SDS011;50151;52.030;5.350;2023-05-07T07:45:59;21.17;;;11.05;;
63965;SDS011;50151;52.030;5.350;2023-05-07T07:48:26;13.35;;;9.82;;
63965;SDS011;50151;52.030;5.350;2023-05-07T07:50:53;14.15;;;10.32;;
63965;SDS011;50151;52.030;5.350;2023-05-07T07:53:20;15.40;;;10.65;;
63965;SDS011;50151;52.030;5.350;2023-05-07T07:55:46;14.60;;;10.57;;
63965;SDS011;50151;52.030;5.350;2023-05-07T07:58:13;14.75;;;9.68;;
63965;SDS011;50151;52.030;5.350;2023-05-07T08:00:39;13.27;;;9.73;;
63965;SDS011;50151;52.030;5.350;2023-05-07T08:03:08;12.48;;;9.77;;
63965;SDS011;50151;52.030;5.350;2023-05-07T08:05:36;17.05;;;10.10;;
63965;SDS011;50151;52.030;5.350;2023-05-07T08:08:05;15.00;;;10.57;;
63965;SDS011;50151;52.030;5.350;2023-05-07T08:10:37;14.48;;;10.70;;
63965;SDS011;50151;52.030;5.350;2023-05-07T08:13:05;17.35;;;10.40;;
63965;SDS011;50151;52.030;5.350;2023-05-07T08:15:32;14.80;;;10.20;;
63965;SDS011;50151;52.030;5.350;2023-05-07T08:18:00;15.63;;;10.80;;
63965;SDS011;50151;52.030;5.350;2023-05-07T08:20:28;13.93;;;9.80;;
63965;SDS011;50151;52.030;5.350;2023-05-07T08:22:55;15.07;;;9.88;;
63965;SDS011;50151;52.030;5.350;2023-05-07T08:25:22;13.48;;;10.32;;
63965;SDS011;50151;52.030;5.350;2023-05-07T08:27:49;15.80;;;10.60;;
63965;SDS011;50151;52.030;5.350;2023-05-07T08:30:17;12.93;;;9.30;;
63965;SDS011;50151;52.030;5.350;2023-05-07T08:32:44;14.15;;;9.90;;
63965;SDS011;50151;52.030;5.350;2023-05-07T08:35:11;13.55;;;9.40;;
63965;SDS011;50151;52.030;5.350;2023-05-07T08:37:38;11.60;;;9.02;;
63965;SDS011;50151;52.030;5.350;2023-05-07T08:40:04;16.92;;;9.85;;
63965;SDS011;50151;52.030;5.350;2023-05-07T08:42:36;11.57;;;9.73;;
63965;SDS011;50151;52.030;5.350;2023-05-07T08:45:04;13.68;;;9.88;;
63965;SDS011;50151;52.030;5.350;2023-05-07T08:47:39;13.80;;;9.95;;
63965;SDS011;50151;52.030;5.350;2023-05-07T08:50:09;12.43;;;9.57;;
63965;SDS011;50151;52.030;5.350;2023-05-07T08:52:37;14.35;;;9.95;;
63965;SDS011;50151;52.030;5.350;2023-05-07T08:55:06;13.07;;;9.45;;
63965;SDS011;50151;52.030;5.350;2023-05-07T08:57:34;12.35;;;9.20;;
63965;SDS011;50151;52.030;5.350;2023-05-07T09:00:07;11.87;;;8.40;;
63965;SDS011;50151;52.030;5.350;2023-05-07T09:02:35;12.63;;;8.40;;
63965;SDS011;50151;52.030;5.350;2023-05-07T09:05:03;10.73;;;8.88;;
63965;SDS011;50151;52.030;5.350;2023-05-07T09:07:32;12.15;;;8.80;;
63965;SDS011;50151;52.030;5.350;2023-05-07T09:10:01;13.65;;;8.90;;
63965;SDS011;50151;52.030;5.350;2023-05-07T09:12:28;14.85;;;9.82;;
63965;SDS011;50151;52.030;5.350;2023-05-07T09:14:55;14.70;;;10.43;;
63965;SDS011;50151;52.030;5.350;2023-05-07T09:17:22;17.05;;;10.63;;
63965;SDS011;50151;52.030;5.350;2023-05-07T09:19:49;12.43;;;9.77;;
63965;SDS011;50151;52.030;5.350;2023-05-07T09:22:16;15.27;;;10.30;;
63965;SDS011;50151;52.030;5.350;2023-05-07T09:24:47;19.00;;;10.43;;
63965;SDS011;50151;52.030;5.350;2023-05-07T09:27:15;14.80;;;10.85;;
63965;SDS011;50151;52.030;5.350;2023-05-07T09:29:44;18.45;;;10.70;;
63965;SDS011;50151;52.030;5.350;2023-05-07T09:32:11;13.73;;;10.88;;
63965;SDS011;50151;52.030;5.350;2023-05-07T09:34:38;15.35;;;11.40;;
63965;SDS011;50151;52.030;5.350;2023-05-07T09:37:05;15.90;;;11.63;;
63965;SDS011;50151;52.030;5.350;2023-05-07T09:39:39;15.60;;;12.32;;
63965;SDS011;50151;52.030;5.350;2023-05-07T09:42:13;18.10;;;11.48;;
63965;SDS011;50151;52.030;5.350;2023-05-07T09:44:41;16.42;;;11.40;;
63965;SDS011;50151;52.030;5.350;2023-05-07T09:47:10;15.32;;;11.68;;
63965;SDS011;50151;52.030;5.350;2023-05-07T09:49:38;17.45;;;12.20;;
63965;SDS011;50151;52.030;5.350;2023-05-07T09:52:10;19.42;;;11.80;;
63965;SDS011;50151;52.030;5.350;2023-05-07T09:54:39;14.07;;;11.60;;
63965;SDS011;50151;52.030;5.350;2023-05-07T09:57:12;16.70;;;11.95;;
63965;SDS011;50151;52.030;5.350;2023-05-07T09:59:42;17.35;;;11.27;;
63965;SDS011;50151;52.030;5.350;2023-05-07T10:02:09;17.23;;;11.73;;
63965;SDS011;50151;52.030;5.350;2023-05-07T10:04:37;19.15;;;11.57;;
63965;SDS011;50151;52.030;5.350;2023-05-07T10:07:04;15.43;;;11.40;;
63965;SDS011;50151;52.030;5.350;2023-05-07T10:09:31;15.73;;;11.13;;
63965;SDS011;50151;52.030;5.350;2023-05-07T10:11:58;14.85;;;11.65;;
63965;SDS011;50151;52.030;5.350;2023-05-07T10:14:25;17.00;;;11.02;;
63965;SDS011;50151;52.030;5.350;2023-05-07T10:16:53;16.08;;;11.40;;
63965;SDS011;50151;52.030;5.350;2023-05-07T10:19:21;13.02;;;10.82;;
63965;SDS011;50151;52.030;5.350;2023-05-07T10:21:55;13.93;;;10.27;;
63965;SDS011;50151;52.030;5.350;2023-05-07T10:24:34;15.95;;;10.55;;
63965;SDS011;50151;52.030;5.350;2023-05-07T10:27:08;15.18;;;10.63;;
63965;SDS011;50151;52.030;5.350;2023-05-07T10:29:39;14.32;;;10.38;;
63965;SDS011;50151;52.030;5.350;2023-05-07T10:32:38;12.27;;;9.75;;
63965;SDS011;50151;52.030;5.350;2023-05-07T10:35:17;16.45;;;10.35;;
63965;SDS011;50151;52.030;5.350;2023-05-07T10:37:52;12.23;;;9.67;;
63965;SDS011;50151;52.030;5.350;2023-05-07T10:40:20;15.93;;;9.70;;
63965;SDS011;50151;52.030;5.350;2023-05-07T10:42:56;11.65;;;9.40;;
63965;SDS011;50151;52.030;5.350;2023-05-07T10:45:25;13.45;;;8.93;;
63965;SDS011;50151;52.030;5.350;2023-05-07T10:48:06;11.02;;;8.65;;
63965;SDS011;50151;52.030;5.350;2023-05-07T10:53:46;13.00;;;8.57;;
63965;SDS011;50151;52.030;5.350;2023-05-07T10:58:45;11.13;;;8.20;;
63965;SDS011;50151;52.030;5.350;2023-05-07T11:01:12;13.80;;;9.20;;
63965;SDS011;50151;52.030;5.350;2023-05-07T11:09:53;21.23;;;9.82;;
63965;SDS011;50151;52.030;5.350;2023-05-07T11:15:06;12.93;;;9.27;;
63965;SDS011;50151;52.030;5.350;2023-05-07T11:17:34;14.30;;;9.60;;
63965;SDS011;50151;52.030;5.350;2023-05-07T11:20:02;11.90;;;9.05;;
63965;SDS011;50151;52.030;5.350;2023-05-07T11:25:02;16.40;;;9.00;;
63965;SDS011;50151;52.030;5.350;2023-05-07T11:27:29;11.82;;;8.85;;
63965;SDS011;50151;52.030;5.350;2023-05-07T11:29:56;18.25;;;9.98;;
63965;SDS011;50151;52.030;5.350;2023-05-07T11:32:27;13.52;;;9.05;;
63965;SDS011;50151;52.030;5.350;2023-05-07T11:34:56;12.23;;;8.13;;
63965;SDS011;50151;52.030;5.350;2023-05-07T11:37:25;14.40;;;8.25;;
63965;SDS011;50151;52.030;5.350;2023-05-07T11:40:03;14.35;;;8.90;;
63965;SDS011;50151;52.030;5.350;2023-05-07T11:42:35;14.82;;;9.10;;
63965;SDS011;50151;52.030;5.350;2023-05-07T11:45:05;15.18;;;8.63;;
63965;SDS011;50151;52.030;5.350;2023-05-07T11:47:33;11.95;;;7.30;;
63965;SDS011;50151;52.030;5.350;2023-05-07T11:50:05;10.98;;;6.65;;
63965;SDS011;50151;52.030;5.350;2023-05-07T11:52:34;14.27;;;6.05;;
63965;SDS011;50151;52.030;5.350;2023-05-07T11:55:03;11.15;;;5.80;;
63965;SDS011;50151;52.030;5.350;2023-05-07T11:57:32;9.88;;;5.10;;
63965;SDS011;50151;52.030;5.350;2023-05-07T12:00:00;8.55;;;4.82;;
63965;SDS011;50151;52.030;5.350;2023-05-07T12:02:31;7.50;;;3.80;;
63965;SDS011;50151;52.030;5.350;2023-05-07T12:05:00;7.70;;;3.40;;
63965;SDS011;50151;52.030;5.350;2023-05-07T12:07:28;10.02;;;4.00;;
63965;SDS011;50151;52.030;5.350;2023-05-07T12:09:55;7.85;;;3.75;;
63965;SDS011;50151;52.030;5.350;2023-05-07T12:12:22;7.18;;;3.63;;
63965;SDS011;50151;52.030;5.350;2023-05-07T12:14:49;10.13;;;3.40;;
63965;SDS011;50151;52.030;5.350;2023-05-07T12:17:15;6.63;;;3.03;;
63965;SDS011;50151;52.030;5.350;2023-05-07T12:19:43;9.45;;;2.85;;
63965;SDS011;50151;52.030;5.350;2023-05-07T12:22:11;8.20;;;3.35;;
63965;SDS011;50151;52.030;5.350;2023-05-07T12:24:48;9.45;;;3.35;;
63965;SDS011;50151;52.030;5.350;2023-05-07T12:27:19;9.52;;;3.15;;
63965;SDS011;50151;52.030;5.350;2023-05-07T12:29:46;7.28;;;3.40;;
63965;SDS011;50151;52.030;5.350;2023-05-07T12:32:15;10.00;;;3.55;;
63965;SDS011;50151;52.030;5.350;2023-05-07T12:34:43;8.63;;;2.97;;
63965;SDS011;50151;52.030;5.350;2023-05-07T12:37:11;7.93;;;3.60;;
63965;SDS011;50151;52.030;5.350;2023-05-07T12:39:47;9.57;;;3.53;;
63965;SDS011;50151;52.030;5.350;2023-05-07T12:42:14;10.30;;;4.57;;
63965;SDS011;50151;52.030;5.350;2023-05-07T12:44:44;5.60;;;3.72;;
63965;SDS011;50151;52.030;5.350;2023-05-07T12:47:12;9.30;;;4.00;;
63965;SDS011;50151;52.030;5.350;2023-05-07T12:49:39;7.88;;;3.50;;
63965;SDS011;50151;52.030;5.350;2023-05-07T12:52:14;8.52;;;3.40;;
63965;SDS011;50151;52.030;5.350;2023-05-07T12:54:40;6.82;;;3.42;;
63965;SDS011;50151;52.030;5.350;2023-05-07T12:57:08;6.43;;;3.20;;
63965;SDS011;50151;52.030;5.350;2023-05-07T12:59:44;8.10;;;4.10;;
63965;SDS011;50151;52.030;5.350;2023-05-07T13:02:10;6.45;;;3.42;;
63965;SDS011;50151;52.030;5.350;2023-05-07T13:04:37;8.68;;;4.25;;
63965;SDS011;50151;52.030;5.350;2023-05-07T13:07:04;7.45;;;4.22;;
63965;SDS011;50151;52.030;5.350;2023-05-07T13:09:31;8.85;;;4.93;;
63965;SDS011;50151;52.030;5.350;2023-05-07T13:11:58;10.45;;;4.88;;
63965;SDS011;50151;52.030;5.350;2023-05-07T13:14:28;11.75;;;4.80;;
63965;SDS011;50151;52.030;5.350;2023-05-07T13:16:54;9.65;;;4.20;;
63965;SDS011;50151;52.030;5.350;2023-05-07T13:19:21;7.03;;;4.53;;
63965;SDS011;50151;52.030;5.350;2023-05-07T13:21:48;7.35;;;4.40;;
63965;SDS011;50151;52.030;5.350;2023-05-07T13:24:15;8.10;;;4.00;;
63965;SDS011;50151;52.030;5.350;2023-05-07T13:26:42;6.97;;;3.63;;
63965;SDS011;50151;52.030;5.350;2023-05-07T13:29:11;6.15;;;3.50;;
63965;SDS011;50151;52.030;5.350;2023-05-07T13:31:38;6.13;;;2.80;;
63965;SDS011;50151;52.030;5.350;2023-05-07T13:34:09;7.32;;;3.10;;
63965;SDS011;50151;52.030;5.350;2023-05-07T13:36:36;7.05;;;2.97;;
63965;SDS011;50151;52.030;5.350;2023-05-07T13:39:06;4.97;;;3.25;;
63965;SDS011;50151;52.030;5.350;2023-05-07T13:41:32;8.65;;;3.70;;
63965;SDS011;50151;52.030;5.350;2023-05-07T13:43:59;8.90;;;4.88;;
63965;SDS011;50151;52.030;5.350;2023-05-07T13:46:26;7.45;;;4.72;;
63965;SDS011;50151;52.030;5.350;2023-05-07T13:48:53;12.18;;;5.85;;
63965;SDS011;50151;52.030;5.350;2023-05-07T13:51:19;9.30;;;5.00;;
63965;SDS011;50151;52.030;5.350;2023-05-07T13:53:46;7.93;;;4.53;;
63965;SDS011;50151;52.030;5.350;2023-05-07T13:56:13;9.63;;;4.68;;
63965;SDS011;50151;52.030;5.350;2023-05-07T13:58:40;9.70;;;4.05;;
63965;SDS011;50151;52.030;5.350;2023-05-07T14:03:51;6.68;;;3.97;;
63965;SDS011;50151;52.030;5.350;2023-05-07T14:06:21;7.45;;;3.97;;
63965;SDS011;50151;52.030;5.350;2023-05-07T14:08:48;6.63;;;3.50;;
63965;SDS011;50151;52.030;5.350;2023-05-07T14:11:14;8.55;;;3.00;;
63965;SDS011;50151;52.030;5.350;2023-05-07T14:13:42;7.55;;;3.40;;
63965;SDS011;50151;52.030;5.350;2023-05-07T14:16:08;8.18;;;3.58;;
63965;SDS011;50151;52.030;5.350;2023-05-07T14:18:35;6.13;;;3.70;;
63965;SDS011;50151;52.030;5.350;2023-05-07T14:21:03;6.55;;;3.55;;
63965;SDS011;50151;52.030;5.350;2023-05-07T14:23:32;7.47;;;3.65;;
63965;SDS011;50151;52.030;5.350;2023-05-07T14:25:58;9.30;;;4.13;;
63965;SDS011;50151;52.030;5.350;2023-05-07T14:28:25;8.55;;;4.28;;
63965;SDS011;50151;52.030;5.350;2023-05-07T14:30:52;8.32;;;4.45;;
63965;SDS011;50151;52.030;5.350;2023-05-07T14:33:19;10.15;;;5.47;;
63965;SDS011;50151;52.030;5.350;2023-05-07T14:35:45;8.77;;;4.93;;
63965;SDS011;50151;52.030;5.350;2023-05-07T14:38:15;11.18;;;5.07;;
63965;SDS011;50151;52.030;5.350;2023-05-07T14:40:42;7.85;;;5.47;;
63965;SDS011;50151;52.030;5.350;2023-05-07T14:43:09;9.57;;;6.25;;
63965;SDS011;50151;52.030;5.350;2023-05-07T14:45:35;12.68;;;5.82;;
63965;SDS011;50151;52.030;5.350;2023-05-07T14:48:02;9.00;;;5.70;;
63965;SDS011;50151;52.030;5.350;2023-05-07T14:50:29;9.07;;;5.88;;
63965;SDS011;50151;52.030;5.350;2023-05-07T14:52:56;10.88;;;5.75;;
63965;SDS011;50151;52.030;5.350;2023-05-07T14:55:23;7.10;;;4.72;;
63965;SDS011;50151;52.030;5.350;2023-05-07T14:57:51;6.18;;;3.90;;
63965;SDS011;50151;52.030;5.350;2023-05-07T15:00:19;5.82;;;3.78;;
63965;SDS011;50151;52.030;5.350;2023-05-07T15:02:46;7.20;;;3.13;;